createdAt,value
2023-01-07T00:01:39.610Z,7.31
2023-01-07T00:04:14.265Z,7.30
2023-01-07T00:06:43.017Z,7.40
2023-01-07T00:09:14.157Z,7.55
2023-01-07T00:11:41.685Z,7.68
2023-01-07T00:14:10.745Z,7.79
2023-01-07T00:16:38.119Z,7.87
2023-01-07T00:19:06.525Z,7.93
2023-01-07T00:21:33.539Z,7.97
2023-01-07T00:24:02.540Z,8.02
2023-01-07T00:26:37.187Z,8.05
2023-01-07T00:29:05.505Z,8.07
2023-01-07T00:31:35.462Z,8.06
2023-01-07T00:34:02.642Z,8.05
2023-01-07T00:36:32.182Z,8.07
2023-01-07T00:39:00.917Z,8.04
2023-01-07T00:41:28.202Z,8.00
2023-01-07T00:43:54.961Z,7.97
2023-01-07T00:46:22.521Z,7.94
2023-01-07T00:48:49.389Z,7.93
2023-01-07T00:51:17.508Z,7.92
2023-01-07T00:53:44.253Z,7.91
2023-01-07T00:56:12.263Z,7.89
2023-01-07T00:58:38.948Z,7.89
2023-01-07T01:01:06.321Z,7.89
2023-01-07T01:03:34.022Z,7.93
2023-01-07T01:06:05.688Z,8.01
2023-01-07T01:08:32.779Z,8.13
2023-01-07T01:11:04.976Z,8.27
2023-01-07T01:13:32.326Z,8.42
2023-01-07T01:15:59.225Z,8.53
2023-01-07T01:18:25.741Z,8.61
2023-01-07T01:20:55.358Z,8.68
2023-01-07T01:23:22.308Z,8.76
2023-01-07T01:25:49.090Z,8.83
2023-01-07T01:28:17.831Z,8.87
2023-01-07T01:30:44.690Z,8.94
2023-01-07T01:33:12.590Z,9.01
2023-01-07T01:35:41.113Z,9.08
2023-01-07T01:38:10.847Z,9.15
2023-01-07T01:40:37.599Z,9.22
2023-01-07T01:43:23.829Z,9.28
2023-01-07T01:45:50.715Z,9.35
2023-01-07T01:48:19.886Z,9.40
2023-01-07T01:50:48.296Z,9.44
2023-01-07T01:53:23.840Z,9.50
2023-01-07T01:55:57.346Z,9.54
2023-01-07T01:59:01.947Z,9.57
2023-01-07T02:01:33.037Z,9.63
2023-01-07T02:04:01.613Z,9.66
2023-01-07T02:06:36.552Z,9.70
2023-01-07T02:09:03.672Z,9.72
2023-01-07T02:11:46.609Z,9.73
2023-01-07T02:14:24.922Z,9.73
2023-01-07T02:17:03.837Z,9.73
2023-01-07T02:19:54.026Z,9.66
2023-01-07T02:23:13.566Z,9.65
2023-01-07T02:26:08.254Z,9.66
2023-01-07T02:29:29.742Z,9.67
2023-01-07T02:32:15.409Z,9.71
2023-01-07T02:34:48.952Z,9.73
2023-01-07T02:37:55.874Z,9.75
2023-01-07T02:40:32.653Z,9.77
2023-01-07T02:43:08.514Z,9.75
2023-01-07T02:45:57.736Z,9.76
2023-01-07T02:48:25.980Z,9.79
2023-01-07T02:50:52.670Z,9.82
2023-01-07T02:53:21.143Z,9.82
2023-01-07T02:56:19.206Z,9.81
2023-01-07T02:59:11.889Z,9.83
2023-01-07T03:01:54.024Z,9.85
2023-01-07T03:04:32.855Z,9.80
2023-01-07T03:07:11.454Z,9.67
2023-01-07T03:09:57.695Z,9.53
2023-01-07T03:12:45.550Z,9.39
2023-01-07T03:15:24.173Z,9.32
2023-01-07T03:18:16.484Z,9.25
2023-01-07T03:20:45.821Z,9.20
2023-01-07T03:23:16.828Z,9.19
2023-01-07T03:25:46.600Z,9.20
2023-01-07T03:28:17.309Z,9.22
2023-01-07T03:30:44.837Z,9.25
2023-01-07T03:33:16.181Z,9.28
2023-01-07T03:35:47.480Z,9.33
2023-01-07T03:38:16.969Z,9.39
2023-01-07T03:40:43.635Z,9.43
2023-01-07T03:43:14.410Z,9.49
2023-01-07T03:45:42.604Z,9.53
2023-01-07T03:48:09.344Z,9.55
2023-01-07T03:50:37.962Z,9.60
2023-01-07T03:53:07.708Z,9.63
2023-01-07T03:55:36.301Z,9.65
2023-01-07T03:58:03.513Z,9.66
2023-01-07T04:00:30.028Z,9.69
2023-01-07T04:03:08.436Z,9.71
2023-01-07T04:05:39.421Z,9.71
2023-01-07T04:08:06.012Z,9.70
2023-01-07T04:10:35.882Z,9.64
2023-01-07T04:13:02.464Z,9.54
2023-01-07T04:15:29.357Z,9.46
2023-01-07T04:17:56.199Z,9.36
2023-01-07T04:20:23.919Z,9.29
2023-01-07T04:22:50.495Z,9.22
2023-01-07T04:25:17.765Z,9.16
2023-01-07T04:27:45.278Z,9.12
2023-01-07T04:30:14.756Z,9.05
2023-01-07T04:32:41.336Z,9.02
2023-01-07T04:35:08.624Z,8.99
2023-01-07T04:37:35.413Z,8.95
2023-01-07T04:40:02.377Z,8.93
2023-01-07T04:42:33.202Z,8.91
2023-01-07T04:44:59.805Z,8.89
2023-01-07T04:47:30.533Z,8.88
2023-01-07T04:49:58.049Z,8.84
2023-01-07T04:52:27.767Z,8.79
2023-01-07T04:54:55.083Z,8.75
2023-01-07T04:57:21.782Z,8.71
2023-01-07T04:59:48.352Z,8.68
2023-01-07T05:02:15.222Z,8.68
2023-01-07T05:04:42.356Z,8.66
2023-01-07T05:07:09.536Z,8.66
2023-01-07T05:09:36.167Z,8.64
2023-01-07T05:12:03.233Z,8.61
2023-01-07T05:14:30.555Z,8.57
2023-01-07T05:16:57.363Z,8.54
2023-01-07T05:19:29.804Z,8.51
2023-01-07T05:21:56.493Z,8.49
2023-01-07T05:24:23.209Z,8.46
2023-01-07T05:26:54.204Z,8.45
2023-01-07T05:29:21.693Z,8.44
2023-01-07T05:31:48.727Z,8.48
2023-01-07T05:34:15.533Z,8.54
2023-01-07T05:36:43.635Z,8.63
2023-01-07T05:39:10.363Z,8.71
2023-01-07T05:41:37.515Z,8.82
2023-01-07T05:44:07.679Z,8.89
2023-01-07T05:46:34.620Z,8.97
2023-01-07T05:49:01.115Z,9.04
2023-01-07T05:51:27.584Z,9.10
2023-01-07T05:53:55.070Z,9.16
2023-01-07T05:56:22.176Z,9.20
2023-01-07T05:58:48.897Z,9.23
2023-01-07T06:01:15.472Z,9.26
2023-01-07T06:03:42.134Z,9.28
2023-01-07T06:06:08.718Z,9.31
2023-01-07T06:08:36.442Z,9.33
2023-01-07T06:11:03.988Z,9.31
2023-01-07T06:13:31.183Z,9.29
2023-01-07T06:16:05.503Z,9.27
2023-01-07T06:18:32.382Z,9.26
2023-01-07T06:20:59.088Z,9.26
2023-01-07T06:23:27.492Z,9.27
2023-01-07T06:25:54.129Z,9.25
2023-01-07T06:28:20.851Z,9.18
2023-01-07T06:30:48.200Z,9.15
2023-01-07T06:33:16.849Z,9.12
2023-01-07T06:35:46.204Z,9.09
2023-01-07T06:38:13.277Z,9.07
2023-01-07T06:40:40.396Z,9.08
2023-01-07T06:43:09.251Z,9.08
2023-01-07T06:45:36.370Z,9.09
2023-01-07T06:48:02.904Z,9.06
2023-01-07T06:50:29.480Z,9.03
2023-01-07T06:52:56.900Z,9.00
2023-01-07T06:55:23.443Z,9.00
2023-01-07T06:57:54.555Z,8.99
2023-01-07T07:00:21.454Z,9.01
2023-01-07T07:02:48.019Z,8.98
2023-01-07T07:05:15.009Z,8.99
2023-01-07T07:07:41.525Z,8.99
2023-01-07T07:10:09.134Z,8.98
2023-01-07T07:12:37.728Z,8.99
2023-01-07T07:15:06.799Z,9.01
2023-01-07T07:17:33.492Z,9.03
2023-01-07T07:20:02.967Z,9.04
2023-01-07T07:22:32.430Z,9.06
2023-01-07T07:25:02.137Z,9.08
2023-01-07T07:27:28.634Z,9.07
2023-01-07T07:29:58.076Z,9.09
2023-01-07T07:32:28.351Z,9.08
2023-01-07T07:34:56.095Z,9.11
2023-01-07T07:37:22.903Z,9.12
2023-01-07T07:39:49.917Z,9.14
2023-01-07T07:42:16.427Z,9.17
2023-01-07T07:44:44.200Z,9.16
2023-01-07T07:47:11.288Z,9.15
2023-01-07T07:49:37.884Z,9.16
2023-01-07T07:52:04.797Z,9.16
2023-01-07T07:54:31.236Z,9.16
2023-01-07T07:56:58.419Z,9.15
2023-01-07T07:59:25.752Z,9.15
2023-01-07T08:01:52.297Z,9.17
2023-01-07T08:04:18.968Z,9.21
2023-01-07T08:06:46.603Z,9.25
2023-01-07T08:09:13.186Z,9.28
2023-01-07T08:11:41.205Z,9.32
2023-01-07T08:14:07.850Z,9.35
2023-01-07T08:16:34.553Z,9.37
2023-01-07T08:19:01.129Z,9.41
2023-01-07T08:21:27.588Z,9.45
2023-01-07T08:23:54.133Z,9.51
2023-01-07T08:26:20.788Z,9.57
2023-01-07T08:28:47.294Z,9.61
2023-01-07T08:31:13.977Z,9.66
2023-01-07T08:33:40.664Z,9.74
2023-01-07T08:36:18.233Z,9.82
2023-01-07T08:38:55.338Z,9.91
2023-01-07T08:41:23.721Z,10.01
2023-01-07T08:43:51.357Z,10.08
2023-01-07T08:46:20.564Z,10.16
2023-01-07T08:48:50.292Z,10.24
2023-01-07T08:51:17.098Z,10.28
2023-01-07T08:53:43.710Z,10.31
2023-01-07T08:56:10.293Z,10.34
2023-01-07T08:58:38.390Z,10.37
2023-01-07T09:01:07.107Z,10.40
2023-01-07T09:03:34.816Z,10.43
2023-01-07T09:06:01.491Z,10.46
2023-01-07T09:08:28.198Z,10.48
2023-01-07T09:10:54.849Z,10.51
2023-01-07T09:13:21.487Z,10.58
2023-01-07T09:15:48.335Z,10.67
2023-01-07T09:18:14.973Z,10.73
2023-01-07T09:20:41.492Z,10.81
2023-01-07T09:23:08.118Z,10.91
2023-01-07T09:25:34.637Z,10.99
2023-01-07T09:28:01.164Z,11.08
2023-01-07T09:30:28.138Z,11.13
2023-01-07T09:32:54.914Z,11.18
2023-01-07T09:35:21.605Z,11.23
2023-01-07T09:37:48.333Z,11.29
2023-01-07T09:40:31.469Z,11.34
2023-01-07T09:43:08.808Z,11.43
2023-01-07T09:45:45.701Z,11.48
2023-01-07T09:48:27.092Z,11.54
2023-01-07T09:51:09.937Z,11.61
2023-01-07T09:53:41.122Z,11.66
2023-01-07T09:56:27.685Z,11.72
2023-01-07T09:58:56.044Z,11.75
2023-01-07T10:01:31.538Z,11.83
2023-01-07T10:03:58.221Z,11.89
2023-01-07T10:06:43.576Z,11.92
2023-01-07T10:09:35.966Z,11.94
2023-01-07T10:12:11.795Z,11.98
2023-01-07T10:14:56.547Z,11.98
2023-01-07T10:17:35.383Z,12.00
2023-01-07T10:20:07.997Z,12.01
2023-01-07T10:22:39.783Z,12.04
2023-01-07T10:25:27.585Z,12.04
2023-01-07T10:27:58.634Z,12.05
2023-01-07T10:30:31.069Z,12.09
2023-01-07T10:33:25.707Z,12.12
2023-01-07T10:36:14.639Z,12.14
2023-01-07T10:38:47.372Z,12.14
2023-01-07T10:41:23.221Z,12.14
2023-01-07T10:44:33.382Z,12.14
2023-01-07T10:47:17.487Z,12.09
2023-01-07T10:50:03.356Z,12.06
2023-01-07T10:52:52.431Z,12.02
2023-01-07T10:55:45.144Z,12.00
2023-01-07T10:58:12.502Z,11.98
2023-01-07T11:00:40.558Z,12.01
2023-01-07T11:03:18.129Z,12.08
2023-01-07T11:05:45.451Z,12.10
2023-01-07T11:11:15.716Z,12.10
2023-01-07T11:13:44.318Z,12.13
2023-01-07T11:16:17.717Z,12.18
2023-01-07T11:19:11.069Z,12.19
2023-01-07T11:21:44.755Z,12.21
2023-01-07T11:24:34.658Z,12.20
2023-01-07T11:27:15.187Z,12.20
2023-01-07T11:30:04.467Z,12.16
2023-01-07T11:32:40.477Z,12.12
2023-01-07T11:35:22.473Z,12.08
2023-01-07T11:37:49.837Z,12.07
2023-01-07T11:40:29.880Z,12.06
2023-01-07T11:43:16.120Z,12.06
2023-01-07T11:46:20.848Z,12.07
2023-01-07T11:49:02.839Z,12.11
2023-01-07T11:51:40.210Z,12.12
2023-01-07T11:54:20.012Z,12.11
2023-01-07T11:56:46.924Z,12.12
2023-01-07T11:59:15.342Z,12.13
2023-01-07T12:01:46.111Z,12.14
2023-01-07T12:04:20.979Z,12.14
2023-01-07T12:06:51.298Z,12.12
2023-01-07T12:09:22.415Z,12.09
2023-01-07T12:11:50.381Z,12.06
2023-01-07T12:14:16.871Z,12.03
2023-01-07T12:16:47.641Z,12.00
2023-01-07T12:19:48.014Z,11.97
2023-01-07T12:22:32.948Z,12.00
2023-01-07T12:25:21.065Z,12.13
2023-01-07T12:28:04.375Z,12.23
2023-01-07T12:31:02.193Z,12.32
2023-01-07T12:34:07.772Z,12.47
2023-01-07T12:36:54.508Z,12.63
2023-01-07T12:39:30.266Z,12.74
2023-01-07T12:42:07.950Z,12.81
2023-01-07T12:44:40.452Z,12.86
2023-01-07T12:47:30.662Z,12.89
2023-01-07T12:50:16.062Z,12.88
2023-01-07T12:52:52.255Z,12.85
2023-01-07T12:55:26.309Z,12.82
2023-01-07T12:58:28.179Z,12.77
2023-01-07T13:01:29.782Z,12.76
2023-01-07T13:04:18.219Z,12.75
2023-01-07T13:06:51.476Z,12.73
2023-01-07T13:09:36.624Z,12.67
2023-01-07T13:12:46.254Z,12.61
2023-01-07T13:15:29.730Z,12.58
2023-01-07T13:17:59.273Z,12.52
2023-01-07T13:20:36.408Z,12.47
2023-01-07T13:23:04.462Z,12.45
2023-01-07T13:25:51.321Z,12.41
2023-01-07T13:28:55.658Z,12.37
2023-01-07T13:31:31.672Z,12.31
2023-01-07T13:34:32.231Z,12.24
2023-01-07T13:37:33.424Z,12.19
2023-01-07T13:40:15.350Z,12.11
2023-01-07T13:43:00.683Z,12.07
2023-01-07T13:45:33.987Z,12.01
2023-01-07T13:48:03.326Z,11.98
2023-01-07T13:50:35.576Z,11.94
2023-01-07T13:53:26.580Z,11.90
2023-01-07T13:56:14.197Z,11.87
2023-01-07T13:58:46.684Z,11.87
2023-01-07T14:01:21.837Z,11.86
2023-01-07T14:03:53.648Z,11.85
2023-01-07T14:06:23.840Z,11.84
2023-01-07T14:08:56.712Z,11.83
2023-01-07T14:11:29.492Z,11.84
2023-01-07T14:14:03.681Z,11.82
2023-01-07T14:16:40.247Z,11.80
2023-01-07T14:19:30.330Z,11.79
2023-01-07T14:22:30.880Z,11.79
2023-01-07T14:25:11.839Z,11.78
2023-01-07T14:28:13.057Z,11.75
2023-01-07T14:30:44.841Z,11.75
2023-01-07T14:33:17.997Z,11.75
2023-01-07T14:36:03.365Z,11.73
2023-01-07T14:38:30.060Z,11.71
2023-01-07T14:41:02.855Z,11.70
2023-01-07T14:43:47.857Z,11.68
2023-01-07T14:46:23.669Z,11.67
2023-01-07T14:49:02.176Z,11.63
2023-01-07T14:51:59.094Z,11.61
2023-01-07T14:54:59.900Z,11.58
2023-01-07T14:57:41.537Z,11.57
2023-01-07T15:00:31.716Z,11.55
2023-01-07T15:03:23.274Z,11.54
2023-01-07T15:06:05.240Z,11.53
2023-01-07T15:09:04.878Z,11.54
2023-01-07T15:11:51.529Z,11.53
2023-01-07T15:15:17.611Z,11.52
2023-01-07T15:17:44.563Z,11.48
2023-01-07T15:20:12.412Z,11.47
2023-01-07T15:23:03.608Z,11.44
2023-01-07T15:25:56.652Z,11.43
2023-01-07T15:28:32.037Z,11.41
2023-01-07T15:31:13.795Z,11.40
2023-01-07T15:33:47.948Z,11.39
2023-01-07T15:36:16.102Z,11.36
2023-01-07T15:38:52.810Z,11.36
2023-01-07T15:41:35.459Z,11.36
2023-01-07T15:44:05.656Z,11.36
2023-01-07T15:46:33.545Z,11.35
2023-01-07T15:49:25.009Z,11.36
2023-01-07T15:51:55.712Z,11.37
2023-01-07T15:54:32.309Z,11.37
2023-01-07T15:57:16.241Z,11.37
2023-01-07T15:59:45.845Z,11.35
2023-01-07T16:02:38.521Z,11.32
2023-01-07T16:05:06.409Z,11.29
2023-01-07T16:07:37.237Z,11.26
2023-01-07T16:10:04.102Z,11.26
2023-01-07T16:12:38.536Z,11.24
2023-01-07T16:15:32.554Z,11.23
2023-01-07T16:18:01.845Z,11.20
2023-01-07T16:20:31.606Z,11.18
2023-01-07T16:23:10.621Z,11.16
2023-01-07T16:25:40.676Z,11.13
2023-01-07T16:28:08.192Z,11.10
2023-01-07T16:30:40.836Z,11.09
2023-01-07T16:33:08.918Z,11.08
2023-01-07T16:35:39.001Z,11.09
2023-01-07T16:38:06.365Z,11.07
2023-01-07T16:40:32.881Z,11.06
2023-01-07T16:42:59.667Z,11.05
2023-01-07T16:45:30.091Z,11.02
2023-01-07T16:48:17.899Z,11.02
2023-01-07T16:50:46.000Z,11.01
2023-01-07T16:53:30.349Z,11.01
2023-01-07T16:56:17.714Z,11.00
2023-01-07T16:58:55.513Z,10.96
2023-01-07T17:01:34.544Z,10.87
2023-01-07T17:04:07.515Z,10.80
2023-01-07T17:06:40.947Z,10.72
2023-01-07T17:09:19.470Z,10.66
2023-01-07T17:11:50.336Z,10.62
2023-01-07T17:14:35.783Z,10.61
2023-01-07T17:17:18.170Z,10.61
2023-01-07T17:19:54.232Z,10.63
2023-01-07T17:22:38.083Z,10.64
2023-01-07T17:25:26.952Z,10.64
2023-01-07T17:28:08.398Z,10.64
2023-01-07T17:30:36.416Z,10.66
2023-01-07T17:33:03.553Z,10.66
2023-01-07T17:35:30.774Z,10.65
2023-01-07T17:37:57.290Z,10.64
2023-01-07T17:40:23.929Z,10.63
2023-01-07T17:43:09.589Z,10.65
2023-01-07T17:45:36.255Z,10.65
2023-01-07T17:48:04.602Z,10.64
2023-01-07T17:50:36.816Z,10.65
2023-01-07T17:53:04.248Z,10.67
2023-01-07T17:55:32.156Z,10.66
2023-01-07T17:57:59.024Z,10.65
2023-01-07T18:00:27.419Z,10.65
2023-01-07T18:02:54.390Z,10.65
2023-01-07T18:05:26.064Z,10.66
2023-01-07T18:07:53.720Z,10.66
2023-01-07T18:10:26.246Z,10.66
2023-01-07T18:12:55.358Z,10.66
2023-01-07T18:15:27.279Z,10.67
2023-01-07T18:17:53.891Z,10.67
2023-01-07T18:20:21.647Z,10.65
2023-01-07T18:22:48.442Z,10.65
2023-01-07T18:25:20.983Z,10.65
2023-01-07T18:27:49.233Z,10.62
2023-01-07T18:30:19.301Z,10.61
2023-01-07T18:32:46.651Z,10.60
2023-01-07T18:35:13.489Z,10.59
2023-01-07T18:37:40.650Z,10.58
2023-01-07T18:40:09.243Z,10.58
2023-01-07T18:42:36.144Z,10.57
2023-01-07T18:45:04.296Z,10.56
2023-01-07T18:47:31.071Z,10.53
2023-01-07T18:49:57.806Z,10.53
2023-01-07T18:52:24.567Z,10.49
2023-01-07T18:54:51.110Z,10.45
2023-01-07T18:57:17.572Z,10.45
2023-01-07T18:59:44.608Z,10.45
2023-01-07T19:02:16.538Z,10.47
2023-01-07T19:04:43.189Z,10.47
2023-01-07T19:07:10.043Z,10.45
2023-01-07T19:09:36.535Z,10.47
2023-01-07T19:12:03.601Z,10.45
2023-01-07T19:14:30.132Z,10.42
2023-01-07T19:16:56.934Z,10.40
2023-01-07T19:19:23.605Z,10.38
2023-01-07T19:21:50.464Z,10.36
2023-01-07T19:24:17.020Z,10.35
2023-01-07T19:26:43.842Z,10.31
2023-01-07T19:29:12.090Z,10.25
2023-01-07T19:31:39.858Z,10.16
2023-01-07T19:34:06.495Z,10.09
2023-01-07T19:36:33.407Z,10.02
2023-01-07T19:38:59.975Z,9.96
2023-01-07T19:41:26.744Z,9.90
2023-01-07T19:43:59.220Z,9.83
2023-01-07T19:46:26.655Z,9.76
2023-01-07T19:48:53.819Z,9.67
2023-01-07T19:51:20.645Z,9.59
2023-01-07T19:53:49.751Z,9.54
2023-01-07T19:56:16.418Z,9.47
2023-01-07T19:58:42.913Z,9.41
2023-01-07T20:01:13.056Z,9.35
2023-01-07T20:03:39.823Z,9.29
2023-01-07T20:06:09.791Z,9.24
2023-01-07T20:08:37.323Z,9.20
2023-01-07T20:11:04.517Z,9.18
2023-01-07T20:13:35.344Z,9.15
2023-01-07T20:16:07.183Z,9.13
2023-01-07T20:18:42.029Z,9.09
2023-01-07T20:21:09.589Z,9.07
2023-01-07T20:23:37.494Z,9.05
2023-01-07T20:26:07.139Z,9.04
2023-01-07T20:28:35.656Z,9.05
2023-01-07T20:31:07.416Z,9.01
2023-01-07T20:33:35.323Z,9.02
2023-01-07T20:36:07.652Z,9.00
2023-01-07T20:38:35.526Z,9.00
2023-01-07T20:41:09.409Z,9.02
2023-01-07T20:43:37.195Z,9.04
2023-01-07T20:46:06.369Z,9.07
2023-01-07T20:48:34.140Z,9.09
2023-01-07T20:51:05.323Z,9.11
2023-01-07T20:53:31.875Z,9.13
2023-01-07T20:56:00.214Z,9.15
2023-01-07T20:58:30.266Z,9.17
2023-01-07T21:00:56.864Z,9.20
2023-01-07T21:03:23.525Z,9.21
2023-01-07T21:05:55.212Z,9.23
2023-01-07T21:08:21.810Z,9.26
2023-01-07T21:10:48.555Z,9.28
2023-01-07T21:13:15.038Z,9.29
2023-01-07T21:15:41.575Z,9.30
2023-01-07T21:18:08.313Z,9.31
2023-01-07T21:20:34.913Z,9.34
2023-01-07T21:23:01.446Z,9.37
2023-01-07T21:25:27.990Z,9.38
2023-01-07T21:27:54.988Z,9.41
2023-01-07T21:30:21.591Z,9.42
2023-01-07T21:32:48.190Z,9.46
2023-01-07T21:35:14.990Z,9.48
2023-01-07T21:37:41.512Z,9.48
2023-01-07T21:40:08.563Z,9.46
2023-01-07T21:42:36.397Z,9.44
2023-01-07T21:45:03.088Z,9.40
2023-01-07T21:47:30.149Z,9.38
2023-01-07T21:49:56.963Z,9.35
2023-01-07T21:52:23.658Z,9.32
2023-01-07T21:54:51.917Z,9.29
2023-01-07T21:57:19.447Z,9.24
2023-01-07T21:59:45.915Z,9.18
2023-01-07T22:02:13.602Z,9.15
2023-01-07T22:04:40.697Z,9.09
2023-01-07T22:07:13.354Z,9.03
2023-01-07T22:09:39.826Z,8.97
2023-01-07T22:12:06.471Z,8.92
2023-01-07T22:14:33.049Z,8.87
2023-01-07T22:16:59.544Z,8.83
2023-01-07T22:19:26.094Z,8.82
2023-01-07T22:21:52.812Z,8.81
2023-01-07T22:24:19.860Z,8.82
2023-01-07T22:26:46.924Z,8.82
2023-01-07T22:29:14.687Z,8.82
2023-01-07T22:31:41.530Z,8.81
2023-01-07T22:34:08.634Z,8.82
2023-01-07T22:36:45.576Z,8.81
2023-01-07T22:39:32.992Z,8.86
2023-01-07T22:42:07.772Z,8.91
2023-01-07T22:44:41.131Z,8.97
2023-01-07T22:47:11.450Z,9.02
2023-01-07T22:49:38.862Z,9.08
2023-01-07T22:52:05.676Z,9.15
2023-01-07T22:54:32.457Z,9.20
2023-01-07T22:56:59.261Z,9.28
2023-01-07T22:59:25.787Z,9.34
2023-01-07T23:01:52.289Z,9.38
2023-01-07T23:04:19.108Z,9.42
2023-01-07T23:06:45.830Z,9.46
2023-01-07T23:09:12.398Z,9.44
2023-01-07T23:11:47.706Z,9.47
2023-01-07T23:14:22.254Z,9.52
2023-01-07T23:16:50.115Z,9.57
2023-01-07T23:19:17.484Z,9.62
2023-01-07T23:21:45.880Z,9.66
2023-01-07T23:24:13.548Z,9.69
2023-01-07T23:26:40.673Z,9.74
2023-01-07T23:29:08.184Z,9.78
2023-01-07T23:31:36.395Z,9.84
2023-01-07T23:34:04.120Z,9.89
2023-01-07T23:36:30.802Z,9.92
2023-01-07T23:38:57.290Z,9.99
2023-01-07T23:41:24.197Z,10.03
2023-01-07T23:43:51.057Z,10.04
2023-01-07T23:46:17.639Z,10.04
2023-01-07T23:48:45.420Z,10.05
2023-01-07T23:51:15.951Z,10.04
2023-01-07T23:53:46.527Z,10.00
2023-01-07T23:56:13.865Z,9.99
2023-01-07T23:58:40.509Z,9.97
